Time;durP1;ratioP1;P1;durP2;ratioP2;P2;SDS_P1;SDS_P2;PMS_P1;PMS_P2;Temp;Humidity;BMP_temperature;BMP_pressure;BME280_temperature;BME280_humidity;BME280_pressure;Samples;Min_cycle;Max_cycle;Signal;HPM_P1;HPM_P2
2021/11/11 00:00:25;;;;;;;;;;;;;;;6.09;75.06;101364.94;4409804;32;33064;-90
2021/11/11 00:02:53;;;;;;;;;;;;;;;6.47;73.51;101367.50;4409285;32;33005;-89
2021/11/11 00:05:21;;;;;;;;;;;;;;;6.79;71.90;101361.28;4409543;32;32735;-88
2021/11/11 00:07:49;;;;;;;;;;;;;;;6.54;72.62;101370.97;4397076;32;33077;-87
2021/11/11 00:10:16;;;;;;;;;;;;;;;6.30;73.55;101366.66;4389799;32;33488;-86
2021/11/11 00:12:45;;;;;;;;;;;;;;;6.20;73.74;101364.91;4394171;32;32869;-86
2021/11/11 00:15:13;;;;;;;;;;;;;;;6.64;72.20;101354.34;4368897;32;32862;-87
2021/11/11 00:17:42;;;;;;;;;;;;;;;6.98;70.94;101348.97;4390976;32;34202;-88
2021/11/11 00:20:09;;;;;;;;;;;;;;;6.82;71.65;101353.41;4389763;32;33324;-88
2021/11/11 00:22:37;;;;;;;;;;;;;;;6.45;73.00;101340.38;4389168;32;34443;-87
2021/11/11 00:25:05;;;;;;;;;;;;;;;6.59;72.28;101342.97;4369198;32;31738;-88
2021/11/11 00:27:33;;;;;;;;;;;;;;;6.52;72.56;101350.00;4392681;32;34065;-88
2021/11/11 00:30:01;;;;;;;;;;;;;;;6.44;72.90;101358.75;4393696;32;33100;-88
2021/11/11 00:32:29;;;;;;;;;;;;;;;6.41;73.10;101354.41;4384829;32;33901;-88
2021/11/11 00:34:58;;;;;;;;;;;;;;;5.84;75.13;101357.03;4383841;32;33212;-89
2021/11/11 00:37:25;;;;;;;;;;;;;;;5.62;75.46;101355.25;4383553;32;32901;-88
2021/11/11 00:39:52;;;;;;;;;;;;;;;5.55;76.05;101358.72;4365093;32;33044;-88
2021/11/11 00:42:20;;;;;;;;;;;;;;;5.93;74.62;101350.94;4393760;32;33674;-88
2021/11/11 00:44:48;;;;;;;;;;;;;;;5.73;75.15;101348.28;4396278;32;33446;-88
2021/11/11 00:47:16;;;;;;;;;;;;;;;5.93;74.77;101342.19;4361370;32;33166;-87
2021/11/11 00:49:43;;;;;;;;;;;;;;;6.39;72.94;101328.16;4368757;32;32836;-87
2021/11/11 00:52:11;;;;;;;;;;;;;;;6.44;72.04;101327.28;4369036;32;34953;-88
2021/11/11 00:54:39;;;;;;;;;;;;;;;5.93;74.21;101334.31;4358730;32;32564;-88
2021/11/11 00:57:07;;;;;;;;;;;;;;;5.93;74.43;101332.56;4368438;32;34380;-88
2021/11/11 00:59:35;;;;;;;;;;;;;;;6.01;74.12;101327.34;4375800;32;34185;-87
2021/11/11 01:02:08;;;;;;;;;;;;;;;6.02;73.85;101327.31;4365650;32;32997;-86
2021/11/11 01:04:36;;;;;;;;;;;;;;;5.80;74.90;101323.81;4394106;32;33080;-86
2021/11/11 01:07:04;;;;;;;;;;;;;;;5.87;74.44;101328.19;4377467;32;32811;-86
2021/11/11 01:09:31;;;;;;;;;;;;;;;6.03;74.01;101316.00;4394699;32;34288;-86
2021/11/11 01:12:00;;;;;;;;;;;;;;;5.44;75.62;101323.78;4399723;32;33742;-86
2021/11/11 01:14:28;;;;;;;;;;;;;;;5.96;74.12;101321.22;4403054;32;33372;-86
2021/11/11 01:16:56;;;;;;;;;;;;;;;6.05;73.48;101316.84;4383472;32;32846;-86
2021/11/11 01:19:23;;;;;;;;;;;;;;;6.00;73.52;101315.97;4360421;32;34408;-86
2021/11/11 01:21:52;;;;;;;;;;;;;;;5.70;74.39;101316.84;4380034;32;33077;-86
2021/11/11 01:24:19;;;;;;;;;;;;;;;5.82;73.89;101306.34;4361412;32;32558;-86
2021/11/11 01:26:46;;;;;;;;;;;;;;;5.72;74.17;101304.59;4385216;32;33808;-86
2021/11/11 01:29:14;;;;;;;;;;;;;;;5.84;73.84;101299.38;4398864;32;34396;-86
2021/11/11 01:31:42;;;;;;;;;;;;;;;5.64;74.73;101296.72;4401962;32;33920;-87
2021/11/11 01:34:10;;;;;;;;;;;;;;;5.90;73.72;101291.50;4379988;32;33391;-86
2021/11/11 01:36:38;;;;;;;;;;;;;;;5.65;74.38;101297.63;4364715;32;33648;-86
2021/11/11 01:39:08;;;;;;;;;;;;;;;6.04;73.52;101288.03;4373058;32;35456;-86
2021/11/11 01:41:36;;;;;;;;;;;;;;;5.78;74.24;101286.22;4407769;32;33197;-86
2021/11/11 01:44:05;;;;;;;;;;;;;;;5.66;74.48;101283.63;4391838;32;32313;-85
2021/11/11 01:46:33;;;;;;;;;;;;;;;5.58;75.19;101269.66;4392054;32;34320;-86
2021/11/11 01:49:00;;;;;;;;;;;;;;;5.71;74.27;101276.66;4379165;32;33113;-86
2021/11/11 01:51:30;;;;;;;;;;;;;;;5.92;73.73;101264.41;4380219;32;34190;-85
2021/11/11 01:53:59;;;;;;;;;;;;;;;5.82;73.82;101263.53;4389130;32;33001;-85
2021/11/11 01:56:27;;;;;;;;;;;;;;;6.11;72.95;101260.87;4401004;32;34920;-85
2021/11/11 01:58:55;;;;;;;;;;;;;;;6.20;72.22;101260.00;4393330;32;33951;-86
2021/11/11 02:01:22;;;;;;;;;;;;;;;5.69;73.71;101259.16;4390284;32;34872;-87
2021/11/11 02:03:54;;;;;;;;;;;;;;;5.80;73.32;101250.44;4392399;32;33166;-84
2021/11/11 02:06:22;;;;;;;;;;;;;;;5.82;73.35;101259.16;4379659;32;34497;-84
2021/11/11 02:08:50;;;;;;;;;;;;;;;6.01;72.32;101253.91;4385939;32;36235;-84
2021/11/11 02:11:20;;;;;;;;;;;;;;;5.95;72.77;101251.31;4401010;32;34128;-84
2021/11/11 02:17:52;;;;;;;;;;;;;;;5.92;72.38;101253.94;4394703;32;35089;-89
2021/11/11 02:20:25;;;;;;;;;;;;;;;5.53;73.85;101250.44;4393303;32;33261;-89
2021/11/11 02:22:54;;;;;;;;;;;;;;;5.58;73.91;101259.16;4367360;32;34205;-89
2021/11/11 02:25:25;;;;;;;;;;;;;;;5.64;73.53;101259.16;4383691;32;33604;-90
2021/11/11 02:28:04;;;;;;;;;;;;;;;5.11;75.42;101267.84;4392874;32;32942;-90
2021/11/11 02:30:46;;;;;;;;;;;;;;;5.44;74.44;101271.37;4383671;32;32842;-89
2021/11/11 02:33:31;;;;;;;;;;;;;;;5.72;73.32;101267.03;4398076;32;33134;-92
2021/11/11 02:40:00;;;;;;;;;;;;;;;6.24;71.46;101249.50;4391310;32;33345;-86
2021/11/11 02:42:28;;;;;;;;;;;;;;;6.09;71.71;101252.16;4368377;32;33293;-89
2021/11/11 02:45:00;;;;;;;;;;;;;;;5.88;72.39;101251.28;4363727;32;33302;-90
2021/11/11 02:47:29;;;;;;;;;;;;;;;6.30;70.84;101240.72;4358420;32;32863;-90
2021/11/11 02:50:12;;;;;;;;;;;;;;;5.63;73.11;101239.94;4378831;32;32966;-90
2021/11/11 02:52:41;;;;;;;;;;;;;;;6.04;71.61;101232.94;4369302;32;33331;-88
2021/11/11 02:55:09;;;;;;;;;;;;;;;6.16;71.07;101230.28;4365810;32;33591;-88
2021/11/11 02:57:38;;;;;;;;;;;;;;;5.95;71.95;101228.59;4387724;32;32912;-88
2021/11/11 03:00:08;;;;;;;;;;;;;;;5.90;72.35;101231.19;4354504;32;33227;-88
2021/11/11 03:02:38;;;;;;;;;;;;;;;5.94;72.29;101236.47;4364531;32;34152;-87
2021/11/11 03:05:18;;;;;;;;;;;;;;;6.01;71.70;101239.06;4365578;32;34280;-89
2021/11/11 03:07:45;;;;;;;;;;;;;;;5.94;71.70;101226.00;4366831;32;32798;-88
2021/11/11 03:10:15;;;;;;;;;;;;;;;6.02;71.50;101234.69;4378012;32;34158;-88
2021/11/11 03:12:43;;;;;;;;;;;;;;;6.03;71.50;101228.56;4379275;32;34333;-87
2021/11/11 03:15:11;;;;;;;;;;;;;;;5.96;71.80;101218.97;4364835;32;32714;-88
2021/11/11 03:17:39;;;;;;;;;;;;;;;6.00;71.65;101225.97;4366867;32;32210;-88
2021/11/11 03:20:07;;;;;;;;;;;;;;;5.51;73.54;101215.53;4367541;32;32900;-88
2021/11/11 03:22:34;;;;;;;;;;;;;;;4.88;75.50;101216.31;4365085;32;33821;-88
2021/11/11 03:25:02;;;;;;;;;;;;;;;5.39;74.12;101211.12;4379888;32;33280;-90
2021/11/11 03:27:43;;;;;;;;;;;;;;;5.77;72.31;101207.63;4389952;32;32209;-89
2021/11/11 03:30:57;;;;;;;;;;;;;;;5.60;72.89;101200.66;4385741;32;32632;-90
2021/11/11 03:33:48;;;;;;;;;;;;;;;5.67;72.71;101206.75;4376889;32;33748;-91
2021/11/11 03:37:12;;;;;;;;;;;;;;;5.28;73.64;101208.53;4393397;32;33590;-90
2021/11/11 03:39:45;;;;;;;;;;;;;;;5.85;72.05;101206.72;4402857;32;33154;-90
2021/11/11 03:42:35;;;;;;;;;;;;;;;5.51;73.38;101212.91;4373711;32;34015;-86
2021/11/11 03:45:03;;;;;;;;;;;;;;;5.65;73.32;101209.41;4350114;32;33254;-86
2021/11/11 03:47:30;;;;;;;;;;;;;;;5.74;72.49;101203.25;4373782;32;33947;-86
2021/11/11 03:49:58;;;;;;;;;;;;;;;5.62;72.77;101211.12;4371214;32;33305;-86
2021/11/11 03:52:25;;;;;;;;;;;;;;;5.63;72.79;101205.88;4386873;32;34053;-85
2021/11/11 03:54:53;;;;;;;;;;;;;;;5.81;72.68;101199.75;4374249;32;36223;-85
2021/11/11 03:57:20;;;;;;;;;;;;;;;6.11;71.36;101203.19;4374232;32;33931;-85
2021/11/11 03:59:48;;;;;;;;;;;;;;;6.23;70.45;101203.16;4374269;32;32413;-85
2021/11/11 04:02:23;;;;;;;;;;;;;;;6.08;71.33;101198.84;4374425;32;33804;-85
2021/11/11 04:04:52;;;;;;;;;;;;;;;5.90;71.50;101202.34;4361494;32;33037;-85
2021/11/11 04:07:20;;;;;;;;;;;;;;;6.01;71.45;101188.38;4386737;32;33854;-86
2021/11/11 04:09:48;;;;;;;;;;;;;;;5.81;71.61;101194.50;4386690;32;32547;-86
2021/11/11 04:12:16;;;;;;;;;;;;;;;5.39;73.91;101201.53;4374216;32;33286;-85
2021/11/11 04:14:43;;;;;;;;;;;;;;;5.57;73.08;101200.66;4373946;32;33610;-84
2021/11/11 04:17:10;;;;;;;;;;;;;;;5.72;72.61;101197.16;4361570;32;34275;-83
2021/11/11 04:19:38;;;;;;;;;;;;;;;5.92;71.77;101201.50;4368227;32;33394;-85
2021/11/11 04:22:06;;;;;;;;;;;;;;;6.18;70.59;101199.69;4361815;32;33267;-85
2021/11/11 04:24:33;;;;;;;;;;;;;;;6.20;70.94;101208.41;4367545;32;33077;-88
2021/11/11 04:27:10;;;;;;;;;;;;;;;6.18;70.08;101210.19;4360981;32;33961;-88
2021/11/11 04:29:44;;;;;;;;;;;;;;;5.73;71.71;101200.63;4383442;32;33472;-91
2021/11/11 04:32:16;;;;;;;;;;;;;;;5.79;71.85;101206.75;4381201;32;33583;-90
2021/11/11 04:34:47;;;;;;;;;;;;;;;6.05;71.06;101200.59;4382837;32;33486;-90
2021/11/11 04:37:27;;;;;;;;;;;;;;;6.22;70.27;101206.69;4356105;32;33723;-91
2021/11/11 05:05:36;;;;;;;;;;;;;;;5.35;72.88;101191.91;4395034;32;34828;-88
2021/11/11 05:08:04;;;;;;;;;;;;;;;5.58;72.16;101191.03;4383972;32;33862;-89
2021/11/11 05:10:32;;;;;;;;;;;;;;;5.86;71.38;101190.13;4368258;32;34423;-88
2021/11/11 05:13:00;;;;;;;;;;;;;;;6.18;70.08;101189.22;4395078;32;33210;-90
2021/11/11 05:15:28;;;;;;;;;;;;;;;6.18;70.37;101183.09;4398930;32;33162;-89
2021/11/11 05:17:55;;;;;;;;;;;;;;;5.99;70.42;101184.91;4379900;32;33567;-89
2021/11/11 05:20:23;;;;;;;;;;;;;;;5.43;72.61;101189.31;4378370;32;33156;-89
2021/11/11 05:22:51;;;;;;;;;;;;;;;5.74;71.29;101184.91;4379645;32;32045;-89
2021/11/11 05:25:19;;;;;;;;;;;;;;;5.90;70.60;101184.00;4369755;32;33806;-88
2021/11/11 05:27:47;;;;;;;;;;;;;;;6.04;70.10;101170.03;4402796;32;34249;-87
2021/11/11 05:30:15;;;;;;;;;;;;;;;5.93;70.23;101171.78;4380865;32;32906;-89
2021/11/11 05:32:43;;;;;;;;;;;;;;;5.86;70.39;101174.41;4408025;32;33307;-88
2021/11/11 05:35:11;;;;;;;;;;;;;;;5.82;70.22;101185.75;4380884;32;34033;-88
2021/11/11 05:37:40;;;;;;;;;;;;;;;5.78;70.73;101184.00;4404033;32;35012;-88
2021/11/11 05:40:09;;;;;;;;;;;;;;;5.80;70.50;101190.16;4402805;32;34788;-88
2021/11/11 05:42:38;;;;;;;;;;;;;;;6.19;68.92;101182.22;4379938;32;33521;-90
2021/11/11 05:45:07;;;;;;;;;;;;;;;6.27;68.60;101199.66;4381605;32;33076;-90
2021/11/11 05:47:37;;;;;;;;;;;;;;;6.20;68.73;101195.31;4401531;32;33057;-88
2021/11/11 05:50:05;;;;;;;;;;;;;;;6.12;68.99;101197.06;4384426;32;31994;-88
2021/11/11 05:52:33;;;;;;;;;;;;;;;5.82;70.10;101200.63;4385744;32;33047;-89
2021/11/11 05:55:01;;;;;;;;;;;;;;;5.76;69.99;101201.50;4391947;32;33257;-88
2021/11/11 05:57:29;;;;;;;;;;;;;;;5.87;69.38;101202.34;4403687;32;34182;-88
2021/11/11 05:59:57;;;;;;;;;;;;;;;5.80;69.79;101203.25;4376028;32;34083;-88
2021/11/11 06:02:25;;;;;;;;;;;;;;;5.95;69.50;101201.50;4403042;32;33619;-88
2021/11/11 06:04:53;;;;;;;;;;;;;;;6.29;67.93;101197.91;4403217;32;33793;-86
2021/11/11 06:07:21;;;;;;;;;;;;;;;5.88;69.37;101211.94;4380179;32;33794;-86
2021/11/11 06:09:48;;;;;;;;;;;;;;;6.07;68.63;101207.56;4408622;32;33471;-86
2021/11/11 06:12:16;;;;;;;;;;;;;;;5.84;69.17;101209.34;4391011;32;33372;-86
2021/11/11 06:14:44;;;;;;;;;;;;;;;5.82;68.99;101213.72;4404707;32;33933;-86
2021/11/11 06:17:11;;;;;;;;;;;;;;;6.24;67.89;101210.16;4403629;32;33564;-86
2021/11/11 06:19:41;;;;;;;;;;;;;;;6.34;67.37;101214.50;4392762;32;33458;-86
2021/11/11 06:22:08;;;;;;;;;;;;;;;6.29;67.37;101205.75;4394555;32;31827;-86
2021/11/11 06:24:36;;;;;;;;;;;;;;;6.24;67.37;101210.16;4407833;32;32846;-89
2021/11/11 06:27:04;;;;;;;;;;;;;;;6.38;66.93;101212.72;4366260;32;33228;-88
2021/11/11 06:29:31;;;;;;;;;;;;;;;6.38;66.97;101217.97;4388947;32;35265;-89
2021/11/11 06:31:59;;;;;;;;;;;;;;;6.43;66.99;101221.44;4398267;32;33708;-87
2021/11/11 06:34:46;;;;;;;;;;;;;;;6.29;67.57;101218.88;4389691;32;34049;-90
2021/11/11 06:37:14;;;;;;;;;;;;;;;6.52;66.85;101220.56;4398693;32;33482;-87
2021/11/11 06:39:41;;;;;;;;;;;;;;;6.53;67.03;101222.28;4417880;32;34557;-88
2021/11/11 06:42:10;;;;;;;;;;;;;;;6.51;67.10;101229.31;4417518;32;33800;-87
2021/11/11 06:44:42;;;;;;;;;;;;;;;6.23;67.78;101229.41;4375405;32;991884;-87
2021/11/11 06:47:09;;;;;;;;;;;;;;;6.51;67.15;101229.31;4405141;32;33126;-87
2021/11/11 06:49:36;;;;;;;;;;;;;;;6.78;66.69;101225.66;4405037;32;34461;-87
2021/11/11 06:52:04;;;;;;;;;;;;;;;6.66;67.36;101227.47;4405053;32;32806;-87
2021/11/11 06:54:32;;;;;;;;;;;;;;;6.61;67.39;101223.13;4417699;32;33583;-87
2021/11/11 06:56:59;;;;;;;;;;;;;;;6.16;69.58;101206.69;4392537;32;33092;-87
2021/11/11 06:59:30;;;;;;;;;;;;;;;6.65;67.18;101207.38;4417388;32;34106;-87
2021/11/11 07:01:58;;;;;;;;;;;;;;;6.85;66.68;101196.75;4404898;32;32427;-87
2021/11/11 07:04:26;;;;;;;;;;;;;;;6.17;69.35;101208.41;4392690;32;32805;-87
2021/11/11 07:10:57;;;;;;;;;;;;;;;6.08;69.66;101197.97;4393998;32;34994;-88
2021/11/11 07:13:25;;;;;;;;;;;;;;;6.18;69.20;101202.31;4417511;32;33063;-87
2021/11/11 07:15:52;;;;;;;;;;;;;;;6.40;68.43;101208.34;4404822;32;33294;-88
2021/11/11 07:18:19;;;;;;;;;;;;;;;6.40;68.32;101209.22;4392297;32;33150;-87
2021/11/11 07:20:49;;;;;;;;;;;;;;;6.49;68.46;101212.69;4392516;32;33937;-88
2021/11/11 07:23:22;;;;;;;;;;;;;;;6.76;67.37;101211.69;4392536;32;32378;-87
2021/11/11 07:25:50;;;;;;;;;;;;;;;6.91;66.73;101209.81;4392614;32;32579;-87
2021/11/11 07:28:18;;;;;;;;;;;;;;;6.73;67.72;101209.94;4404846;32;33815;-88
2021/11/11 07:30:46;;;;;;;;;;;;;;;6.86;67.68;101211.59;4392312;32;33819;-87
2021/11/11 07:33:14;;;;;;;;;;;;;;;6.98;67.23;101212.41;4392082;32;32030;-88
2021/11/11 07:39:43;;;;;;;;;;;;;;;6.90;67.26;101202.84;4421895;32;34928;-87
2021/11/11 07:42:11;;;;;;;;;;;;;;;6.73;68.05;101209.06;4396406;32;34223;-87
2021/11/11 07:48:41;;;;;;;;;;;;;;;6.93;66.58;101213.34;4421833;32;34782;-88
2021/11/11 07:51:08;;;;;;;;;;;;;;;6.39;68.81;101209.22;4396019;32;34594;-88
2021/11/11 07:53:35;;;;;;;;;;;;;;;7.06;66.84;101207.97;4396244;32;32686;-88
2021/11/11 07:56:03;;;;;;;;;;;;;;;6.71;66.77;101201.19;4397210;32;32509;-89
2021/11/11 07:58:31;;;;;;;;;;;;;;;7.01;66.43;101194.00;4398217;32;33178;-88
2021/11/11 08:00:58;;;;;;;;;;;;;;;7.05;66.29;101198.38;4397761;32;33125;-89
2021/11/11 08:03:27;;;;;;;;;;;;;;;7.21;66.20;101197.34;4410779;32;34897;-89
2021/11/11 08:05:55;;;;;;;;;;;;;;;7.06;65.53;101184.34;4395051;32;32297;-88
2021/11/11 08:08:22;;;;;;;;;;;;;;;6.84;66.56;101191.50;4393960;32;33069;-89
2021/11/11 08:10:50;;;;;;;;;;;;;;;6.89;65.97;101179.22;4393752;32;32900;-88
2021/11/11 08:13:17;;;;;;;;;;;;;;;7.02;66.57;101172.97;4381357;32;33390;-89
2021/11/11 08:15:44;;;;;;;;;;;;;;;7.16;65.71;101167.62;4393642;32;32583;-89
2021/11/11 08:18:12;;;;;;;;;;;;;;;7.43;64.66;101166.53;4406452;32;33221;-88
2021/11/11 08:20:39;;;;;;;;;;;;;;;7.63;63.84;101159.31;4406372;32;33573;-89
2021/11/11 08:23:07;;;;;;;;;;;;;;;7.76;62.57;101154.81;4381173;32;33527;-88
2021/11/11 08:25:35;;;;;;;;;;;;;;;7.07;65.09;101172.94;4393855;32;32534;-89
2021/11/11 08:28:02;;;;;;;;;;;;;;;7.51;64.02;101163.84;4393345;32;33175;-89
2021/11/11 08:30:29;;;;;;;;;;;;;;;8.03;62.30;101168.56;4406341;32;33345;-90
2021/11/11 08:32:57;;;;;;;;;;;;;;;8.22;60.84;101154.31;4381196;32;32916;-87
2021/11/11 08:35:25;;;;;;;;;;;;;;;7.74;62.10;101163.59;4406563;32;32658;-88
2021/11/11 08:37:54;;;;;;;;;;;;;;;8.34;61.27;101148.00;4393777;32;32613;-89
2021/11/11 08:40:21;;;;;;;;;;;;;;;7.80;62.04;101145.16;4406111;32;34047;-88
2021/11/11 08:42:50;;;;;;;;;;;;;;;8.32;61.72;101139.25;4402126;32;33024;-86
2021/11/11 08:45:18;;;;;;;;;;;;;;;8.50;60.49;101143.41;4395649;32;32891;-90
2021/11/11 08:48:19;;;;;;;;;;;;;;;8.39;59.90;101147.06;4371600;32;34648;-91
2021/11/11 08:50:58;;;;;;;;;;;;;;;8.55;59.20;101146.91;4404407;32;34148;-92
2021/11/11 08:54:06;;;;;;;;;;;;;;;8.52;60.57;101147.78;4368117;32;34187;-92
2021/11/11 08:56:54;;;;;;;;;;;;;;;8.37;59.80;101148.87;4365174;32;31828;-91
2021/11/11 08:59:54;;;;;;;;;;;;;;;8.50;59.81;101148.69;4396085;32;33065;-92
2021/11/11 09:02:44;;;;;;;;;;;;;;;8.97;59.00;101135.72;4406164;32;34201;-93
2021/11/11 09:05:38;;;;;;;;;;;;;;;8.93;57.85;101139.28;4416592;32;35025;-93
2021/11/11 09:08:18;;;;;;;;;;;;;;;9.29;57.65;101130.78;4403705;32;33152;-93
2021/11/11 09:11:00;;;;;;;;;;;;;;;9.27;57.51;101133.47;4417973;32;32833;-91
2021/11/11 09:13:44;;;;;;;;;;;;;;;9.07;58.14;101130.28;4389224;32;33082;-93
2021/11/11 09:16:26;;;;;;;;;;;;;;;9.38;57.99;101126.22;4360291;32;33554;-90
2021/11/11 09:19:08;;;;;;;;;;;;;;;9.21;57.50;101130.94;4400477;32;33479;-91
2021/11/11 09:21:50;;;;;;;;;;;;;;;9.10;57.14;101136.38;4416154;32;33453;-92
2021/11/11 09:24:41;;;;;;;;;;;;;;;8.89;59.64;101136.72;4388630;32;32914;-91
2021/11/11 09:27:23;;;;;;;;;;;;;;;9.60;56.80;101125.88;4406530;32;33690;-92
2021/11/11 09:30:15;;;;;;;;;;;;;;;9.96;55.64;101119.84;4419796;32;32209;-93
2021/11/11 09:32:55;;;;;;;;;;;;;;;10.05;55.58;101113.53;4415646;32;33281;-92
2021/11/11 09:35:46;;;;;;;;;;;;;;;9.69;55.82;101115.16;4390346;32;33792;-92
2021/11/11 09:38:25;;;;;;;;;;;;;;;9.87;56.77;101135.00;4357167;32;33241;-92
2021/11/11 09:41:26;;;;;;;;;;;;;;;9.62;57.51;101126.69;4387444;32;32109;-91
2021/11/11 09:44:05;;;;;;;;;;;;;;;9.67;56.07;101112.50;4382791;32;33029;-93
2021/11/11 09:51:12;;;;;;;;;;;;;;;10.05;54.97;101110.88;4360721;32;35160;-92
2021/11/11 10:00:03;;;;;;;;;;;;;;;10.92;53.33;101097.50;4398113;32;32075;-92
2021/11/11 10:02:57;;;;;;;;;;;;;;;10.36;55.22;101112.94;4410593;32;34858;-93
2021/11/11 10:05:40;;;;;;;;;;;;;;;10.54;55.05;101101.06;4408002;32;32466;-93
2021/11/11 10:08:38;;;;;;;;;;;;;;;10.98;54.69;101097.38;4438526;32;35000;-92
2021/11/11 10:11:32;;;;;;;;;;;;;;;11.11;53.07;101082.97;4418562;32;34325;-92
2021/11/11 10:14:30;;;;;;;;;;;;;;;10.62;54.40;101080.63;4364278;32;32547;-92
2021/11/11 10:17:14;;;;;;;;;;;;;;;11.32;51.78;101065.66;4381712;32;33523;-92
2021/11/11 10:20:15;;;;;;;;;;;;;;;11.30;52.64;101059.56;4379065;32;19999;-92
2021/11/11 10:23:35;;;;;;;;;;;;;;;12.02;50.38;101058.44;4397070;32;32658;-94
2021/11/11 10:26:38;;;;;;;;;;;;;;;11.64;50.39;101051.56;4363362;32;32662;-93
2021/11/11 10:29:18;;;;;;;;;;;;;;;12.08;50.30;101045.91;4437185;32;32425;-92
2021/11/11 10:32:16;;;;;;;;;;;;;;;12.21;49.46;101047.28;4435904;32;32445;-92
2021/11/11 10:34:58;;;;;;;;;;;;;;;12.09;49.96;101039.69;4396729;32;32723;-92
2021/11/11 10:37:43;;;;;;;;;;;;;;;12.53;49.23;101031.25;4392382;32;33282;-92
2021/11/11 10:40:26;;;;;;;;;;;;;;;12.29;49.26;101030.22;4406816;32;31824;-92
2021/11/11 10:43:24;;;;;;;;;;;;;;;12.47;48.69;101034.09;4394251;32;34862;-91
2021/11/11 10:46:06;;;;;;;;;;;;;;;12.81;48.02;101036.50;4399839;32;33186;-93
2021/11/11 10:49:18;;;;;;;;;;;;;;;12.97;48.90;101028.91;4424398;32;35439;-92
2021/11/11 10:52:19;;;;;;;;;;;;;;;12.30;49.92;101031.13;4398672;32;32994;-92
2021/11/11 10:55:19;;;;;;;;;;;;;;;12.42;48.36;101030.72;4368280;32;32548;-92
2021/11/11 10:57:58;;;;;;;;;;;;;;;12.38;48.55;101026.44;4374009;32;34389;-92
2021/11/11 11:00:50;;;;;;;;;;;;;;;12.71;48.14;101021.81;4370346;32;33330;-90
2021/11/11 11:03:31;;;;;;;;;;;;;;;12.27;49.35;101029.41;4403728;32;31968;-93
2021/11/11 11:06:19;;;;;;;;;;;;;;;12.37;48.48;101021.19;4426287;32;33150;-92
2021/11/11 11:09:18;;;;;;;;;;;;;;;12.47;49.24;101007.59;4425288;32;34946;-93
2021/11/11 11:12:25;;;;;;;;;;;;;;;12.95;47.71;101004.22;4398547;32;34981;-85
2021/11/11 11:14:53;;;;;;;;;;;;;;;12.92;47.95;101000.84;4378633;32;33403;-85
2021/11/11 11:17:20;;;;;;;;;;;;;;;12.55;48.47;101010.88;4398402;32;34846;-86
2021/11/11 11:19:48;;;;;;;;;;;;;;;11.95;49.40;101009.22;4382622;32;33033;-85
2021/11/11 11:22:24;;;;;;;;;;;;;;;12.46;47.97;100999.69;4386632;32;33371;-85
2021/11/11 11:25:02;;;;;;;;;;;;;;;12.26;49.01;101003.00;4381416;32;32174;-85
2021/11/11 11:27:32;;;;;;;;;;;;;;;12.56;48.49;100998.47;4380925;32;33002;-86
2021/11/11 11:30:04;;;;;;;;;;;;;;;12.77;47.77;100991.59;4393625;32;34665;-85
2021/11/11 11:32:32;;;;;;;;;;;;;;;12.62;49.02;100994.75;4395581;32;34880;-85
2021/11/11 11:35:01;;;;;;;;;;;;;;;12.62;48.74;100968.25;4390376;32;33817;-86
2021/11/11 11:37:29;;;;;;;;;;;;;;;12.88;48.20;100970.91;4380723;32;33551;-87
2021/11/11 11:40:03;;;;;;;;;;;;;;;12.48;50.03;100968.72;4383777;32;33275;-90
2021/11/11 11:42:33;;;;;;;;;;;;;;;12.68;48.19;100971.59;4410191;32;32563;-90
2021/11/11 11:45:09;;;;;;;;;;;;;;;12.81;47.84;100958.78;4396514;32;32827;-89
2021/11/11 11:47:39;;;;;;;;;;;;;;;12.48;49.50;100971.38;4408355;32;33366;-89
2021/11/11 11:50:06;;;;;;;;;;;;;;;12.57;48.30;100956.03;4408916;32;34460;-90
2021/11/11 11:52:35;;;;;;;;;;;;;;;12.70;48.39;100951.19;4409018;32;33510;-90
2021/11/11 12:14:18;;;;;;;;;;;;;;;12.90;47.22;100921.34;4352809;32;34469;-90
2021/11/11 12:39:38;;;;;;;;;;;;;;;12.12;48.80;100891.34;4407510;32;33413;-90
2021/11/11 12:42:29;;;;;;;;;;;;;;;12.41;48.30;100880.66;4398410;32;34128;-88
2021/11/11 12:45:01;;;;;;;;;;;;;;;11.71;50.49;100885.56;4409473;32;32620;-89
2021/11/11 12:47:30;;;;;;;;;;;;;;;11.86;49.98;100871.88;4409574;32;33758;-88
2021/11/11 12:50:17;;;;;;;;;;;;;;;12.14;49.46;100866.53;4396996;32;32607;-88
2021/11/11 12:52:45;;;;;;;;;;;;;;;11.70;50.28;100867.97;4409373;32;33046;-88
2021/11/11 12:55:17;;;;;;;;;;;;;;;11.76;51.04;100859.81;4410057;32;33773;-87
2021/11/11 12:58:05;;;;;;;;;;;;;;;11.83;50.86;100861.41;4409077;32;32905;-88
2021/11/11 13:00:37;;;;;;;;;;;;;;;12.23;50.50;100860.09;4422364;32;31992;-88
2021/11/11 13:03:06;;;;;;;;;;;;;;;12.34;50.26;100849.97;4421783;32;32584;-88
2021/11/11 13:05:52;;;;;;;;;;;;;;;12.28;51.40;100858.16;4396813;32;33512;-88
2021/11/11 13:08:20;;;;;;;;;;;;;;;12.28;50.37;100858.16;4421631;32;33134;-88
2021/11/11 13:10:58;;;;;;;;;;;;;;;11.66;52.59;100853.94;4396067;32;31978;-88
2021/11/11 13:13:26;;;;;;;;;;;;;;;11.77;51.86;100861.53;4408924;32;34814;-88
2021/11/11 13:16:01;;;;;;;;;;;;;;;12.44;50.60;100851.44;4383616;32;33916;-90
2021/11/11 13:19:02;;;;;;;;;;;;;;;12.09;51.30;100851.75;4414075;32;32380;-88
2021/11/11 16:20:06;;;;;;;;;;;;;;;10.55;54.62;100875.69;4397596;32;33656;-90
2021/11/11 16:25:40;;;;;;;;;;;;;;;10.63;54.22;100874.56;4402988;32;35118;-90
2021/11/11 16:28:08;;;;;;;;;;;;;;;10.59;54.45;100877.34;4405315;32;33916;-87
2021/11/11 16:30:35;;;;;;;;;;;;;;;10.28;55.07;100883.41;4420906;32;33933;-89
2021/11/11 16:33:03;;;;;;;;;;;;;;;10.33;55.19;100892.09;4409901;32;32026;-89
2021/11/11 16:35:30;;;;;;;;;;;;;;;10.39;54.89;100886.62;4404239;32;34359;-89
2021/11/11 16:37:58;;;;;;;;;;;;;;;10.47;54.81;100884.69;4397717;32;32811;-89
2021/11/11 16:40:26;;;;;;;;;;;;;;;10.52;54.85;100882.78;4420288;32;34802;-89
2021/11/11 16:42:54;;;;;;;;;;;;;;;10.48;55.16;100886.41;4410428;32;32707;-89
2021/11/11 16:45:22;;;;;;;;;;;;;;;10.53;55.20;100891.56;4385373;32;32797;-89
2021/11/11 16:47:50;;;;;;;;;;;;;;;10.44;55.70;100883.88;4398011;32;33994;-88
2021/11/11 16:50:18;;;;;;;;;;;;;;;10.42;55.89;100881.28;4410670;32;33200;-89
2021/11/11 16:52:46;;;;;;;;;;;;;;;10.40;56.17;100887.53;4396538;32;31255;-89
2021/11/11 16:55:13;;;;;;;;;;;;;;;10.45;56.16;100886.50;4412471;32;33039;-89
2021/11/11 16:57:42;;;;;;;;;;;;;;;10.51;55.91;100886.34;4408071;32;32700;-89
2021/11/11 17:00:11;;;;;;;;;;;;;;;10.24;56.96;100879.97;4422297;32;34487;-89
2021/11/11 17:02:39;;;;;;;;;;;;;;;10.27;56.98;100889.59;4410924;32;33071;-90
2021/11/11 17:05:07;;;;;;;;;;;;;;;10.38;56.71;100884.91;4404548;32;33090;-89
2021/11/11 17:07:36;;;;;;;;;;;;;;;10.38;56.79;100890.19;4411847;32;33452;-89
2021/11/11 17:10:04;;;;;;;;;;;;;;;10.32;57.24;100890.34;4409218;32;34319;-90
2021/11/11 17:12:32;;;;;;;;;;;;;;;10.50;56.77;100892.53;4409803;32;31820;-89
2021/11/11 17:15:05;;;;;;;;;;;;;;;10.34;56.55;100888.53;4424783;32;33488;-90
2021/11/11 17:17:32;;;;;;;;;;;;;;;10.37;56.47;100888.47;4408762;32;33492;-88
2021/11/11 17:19:59;;;;;;;;;;;;;;;10.36;56.64;100888.50;4408010;32;33557;-88
2021/11/11 17:22:37;;;;;;;;;;;;;;;10.42;56.73;100886.56;4400290;32;31974;-88
2021/11/11 17:25:26;;;;;;;;;;;;;;;10.47;56.66;100891.72;4407990;32;33998;-86
2021/11/11 17:28:00;;;;;;;;;;;;;;;10.32;56.71;100894.78;4407262;32;34571;-88
2021/11/11 17:30:28;;;;;;;;;;;;;;;10.18;56.89;100892.44;4410148;32;32583;-88
2021/11/11 17:32:56;;;;;;;;;;;;;;;10.13;56.63;100883.78;4387409;32;32301;-88
2021/11/11 17:35:28;;;;;;;;;;;;;;;9.77;57.69;100890.78;4410686;32;33221;-89
2021/11/11 17:37:55;;;;;;;;;;;;;;;9.88;57.50;100889.62;4410109;32;32904;-89
2021/11/11 17:40:23;;;;;;;;;;;;;;;9.83;57.56;100880.97;4407627;32;32467;-89
2021/11/11 17:42:51;;;;;;;;;;;;;;;9.96;57.12;100882.38;4402329;32;32105;-88
2021/11/11 17:45:25;;;;;;;;;;;;;;;9.89;57.60;100887.87;4397980;32;33324;-87
2021/11/11 17:47:55;;;;;;;;;;;;;;;9.91;57.39;100886.91;4405247;32;33363;-87
2021/11/11 17:50:31;;;;;;;;;;;;;;;9.61;57.78;100890.25;4406688;32;34173;-87
2021/11/11 17:53:09;;;;;;;;;;;;;;;9.53;58.24;100897.47;4423221;32;33292;-87